createdAt,value
2019-06-20T00:01:36.821Z,94718.06
2019-06-20T00:04:05.445Z,94723.45
2019-06-20T00:06:34.246Z,94723.03
2019-06-20T00:09:03.162Z,94715.75
2019-06-20T00:11:31.723Z,94719.55
2019-06-20T00:14:00.233Z,94732.64
2019-06-20T00:16:28.827Z,94725.92
2019-06-20T00:18:57.395Z,94723.66
2019-06-20T00:21:26.035Z,94726.06
2019-06-20T00:23:54.769Z,94716.99
2019-06-20T00:26:23.261Z,94716.27
2019-06-20T00:28:51.829Z,94716.38
2019-06-20T00:31:20.499Z,94716.42
2019-06-20T00:33:49.125Z,94715.17
2019-06-20T00:36:17.617Z,94721.57
2019-06-20T00:38:46.219Z,94713.42
2019-06-20T00:41:14.851Z,94721.77
2019-06-20T00:43:43.475Z,94723.50
2019-06-20T00:46:12.005Z,94717.22
2019-06-20T00:48:40.634Z,94711.41
2019-06-20T00:51:09.575Z,94712.63
2019-06-20T00:53:38.242Z,94708.77
2019-06-20T00:56:06.975Z,94712.03
2019-06-20T00:58:35.550Z,94706.49
2019-06-20T01:01:04.143Z,94706.09
2019-06-20T01:03:32.781Z,94697.56
2019-06-20T01:06:01.431Z,94705.63
2019-06-20T01:08:30.082Z,94705.25
2019-06-20T01:10:58.679Z,94698.19
2019-06-20T01:13:33.683Z,94712.03
2019-06-20T01:15:57.783Z,94707.08
2019-06-20T01:18:26.410Z,94709.48
2019-06-20T01:20:55.065Z,94708.50
2019-06-20T01:23:23.595Z,94708.89
2019-06-20T01:25:52.226Z,94711.06
2019-06-20T01:28:20.861Z,94716.70
2019-06-20T01:30:49.478Z,94719.87
2019-06-20T01:33:17.997Z,94716.97
2019-06-20T01:35:47.424Z,94717.23
2019-06-20T01:38:16.100Z,94717.59
2019-06-20T01:40:44.676Z,94719.24
2019-06-20T01:43:13.322Z,94709.31
2019-06-20T01:45:41.989Z,94720.27
2019-06-20T01:48:10.617Z,94720.50
2019-06-20T01:50:39.254Z,94719.24
2019-06-20T01:53:07.941Z,94716.87
2019-06-20T01:55:36.518Z,94704.70
2019-06-20T01:58:05.180Z,94709.31
2019-06-20T02:00:48.328Z,94703.78
2019-06-20T02:03:17.271Z,94714.26
2019-06-20T02:05:46.110Z,94716.50
2019-06-20T02:08:15.094Z,94713.50
2019-06-20T02:10:43.726Z,94711.75
2019-06-20T02:13:12.362Z,94715.67
2019-06-20T02:15:41.032Z,94712.53
2019-06-20T02:18:10.966Z,94723.09
2019-06-20T02:20:51.669Z,94725.73
2019-06-20T02:23:20.511Z,94725.86
2019-06-20T02:25:49.084Z,94724.34
2019-06-20T02:28:17.710Z,94732.03
2019-06-20T02:30:46.347Z,94740.59
2019-06-20T02:33:15.032Z,94734.94
2019-06-20T02:35:43.645Z,94738.72
2019-06-20T02:38:12.290Z,94741.86
2019-06-20T02:40:40.974Z,94748.66
2019-06-20T02:43:09.611Z,94759.23
2019-06-20T02:45:38.366Z,94756.70
2019-06-20T02:48:07.186Z,94760.23
2019-06-20T02:50:35.822Z,94756.32
2019-06-20T02:53:05.941Z,94760.73
2019-06-20T02:55:34.601Z,94758.97
2019-06-20T02:58:03.177Z,94755.20
2019-06-20T03:00:54.089Z,94759.59
2019-06-20T03:03:22.978Z,94754.07
2019-06-20T03:05:51.617Z,94760.75
2019-06-20T03:08:21.591Z,94766.01
2019-06-20T03:10:50.138Z,94757.97
2019-06-20T03:13:18.775Z,94752.80
2019-06-20T03:15:49.956Z,94754.45
2019-06-20T03:18:18.005Z,94749.41
2019-06-20T03:20:46.654Z,94755.56
2019-06-20T03:23:15.330Z,94764.87
2019-06-20T03:25:44.036Z,94762.86
2019-06-20T03:28:12.621Z,94750.39
2019-06-20T03:30:41.445Z,94757.14
2019-06-20T03:33:10.093Z,94757.14
2019-06-20T03:35:38.666Z,94765.45
2019-06-20T03:38:07.283Z,94760.91
2019-06-20T03:40:35.850Z,94757.82
2019-06-20T03:43:04.418Z,94753.98
2019-06-20T03:45:33.402Z,94750.78
2019-06-20T03:48:01.973Z,94760.28
2019-06-20T03:50:30.603Z,94758.37
2019-06-20T03:53:00.858Z,94763.22
2019-06-20T03:55:29.856Z,94762.19
2019-06-20T03:57:59.267Z,94762.78
2019-06-20T04:00:30.482Z,94761.05
2019-06-20T04:02:59.041Z,94760.03
2019-06-20T04:05:27.601Z,94762.73
2019-06-20T04:07:56.679Z,94764.10
2019-06-20T04:10:25.249Z,94765.49
2019-06-20T04:12:53.886Z,94765.42
2019-06-20T04:15:22.612Z,94759.81
2019-06-20T04:17:51.139Z,94761.40
2019-06-20T04:20:19.776Z,94761.09
2019-06-20T04:22:48.391Z,94757.89
2019-06-20T04:25:16.971Z,94756.30
2019-06-20T04:27:45.548Z,94761.86
2019-06-20T04:30:14.259Z,94752.16
2019-06-20T04:32:42.884Z,94751.70
2019-06-20T04:35:11.523Z,94752.72
2019-06-20T04:37:40.205Z,94758.20
2019-06-20T04:40:09.154Z,94761.08
2019-06-20T04:42:37.717Z,94756.75
2019-06-20T04:45:09.466Z,94758.37
2019-06-20T04:47:38.103Z,94753.10
2019-06-20T04:50:06.740Z,94750.31
2019-06-20T04:52:35.337Z,94753.78
2019-06-20T04:55:04.865Z,94757.39
2019-06-20T04:57:33.432Z,94761.57
2019-06-20T05:00:02.277Z,94761.90
2019-06-20T05:02:36.790Z,94759.67
2019-06-20T05:05:08.943Z,94754.34
2019-06-20T05:07:37.566Z,94753.46
2019-06-20T05:10:07.100Z,94761.09
2019-06-20T05:12:35.790Z,94753.73
2019-06-20T05:15:05.716Z,94756.02
2019-06-20T05:17:34.351Z,94751.55
2019-06-20T05:20:03.226Z,94755.33
2019-06-20T05:22:31.784Z,94748.27
2019-06-20T05:25:00.280Z,94750.13
2019-06-20T05:27:28.892Z,94745.72
2019-06-20T05:29:57.467Z,94744.11
2019-06-20T05:32:26.034Z,94756.53
2019-06-20T05:34:54.707Z,94754.97
2019-06-20T05:37:23.336Z,94753.94
2019-06-20T05:39:51.963Z,94764.20
2019-06-20T05:42:20.574Z,94755.20
2019-06-20T05:44:49.142Z,94767.48
2019-06-20T05:47:17.776Z,94774.16
2019-06-20T05:49:46.395Z,94775.98
2019-06-20T05:52:14.963Z,94775.12
2019-06-20T05:54:43.597Z,94773.44
2019-06-20T05:57:12.264Z,94776.94
2019-06-20T05:59:40.833Z,94783.95
2019-06-20T06:02:09.475Z,94786.89
2019-06-20T06:04:38.157Z,94790.09
2019-06-20T06:07:06.776Z,94791.98
2019-06-20T06:09:35.361Z,94791.98
2019-06-20T06:12:04.014Z,94790.94
2019-06-20T06:14:32.535Z,94790.92
2019-06-20T06:17:01.145Z,94778.60
2019-06-20T06:19:29.791Z,94779.72
2019-06-20T06:21:58.360Z,94777.03
2019-06-20T06:24:27.011Z,94773.63
2019-06-20T06:26:59.766Z,94774.77
2019-06-20T06:29:25.868Z,94776.89
2019-06-20T06:31:54.541Z,94773.44
2019-06-20T06:34:23.032Z,94775.27
2019-06-20T06:36:51.600Z,94776.34
2019-06-20T06:39:20.411Z,94768.39
2019-06-20T06:41:48.983Z,94775.53
2019-06-20T06:44:17.539Z,94781.28
2019-06-20T06:46:54.151Z,94778.40
2019-06-20T06:49:16.419Z,94777.45
2019-06-20T06:51:45.006Z,94777.08
2019-06-20T06:54:13.671Z,94774.77
2019-06-20T06:56:42.324Z,94780.68
2019-06-20T06:59:10.798Z,94780.31
2019-06-20T07:01:39.670Z,94775.15
2019-06-20T07:04:08.532Z,94776.28
2019-06-20T07:06:37.080Z,94775.77
2019-06-20T07:09:08.495Z,94777.86
2019-06-20T07:11:37.147Z,94768.92
2019-06-20T07:14:05.921Z,94775.95
2019-06-20T07:16:34.563Z,94762.25
2019-06-20T07:19:03.130Z,94759.03
2019-06-20T07:21:31.741Z,94762.41
2019-06-20T07:24:00.458Z,94763.05
2019-06-20T07:26:29.288Z,94757.63
2019-06-20T07:28:57.977Z,94760.97
2019-06-20T07:31:26.620Z,94756.99
2019-06-20T07:33:55.257Z,94755.73
